sensor_id;sensor_type;location;lat;lon;timestamp;pressure;altitude;pressure_sealevel;temperature;humidity
61345;BME280;47216;42.656;23.232;2022-09-03T00:00:04;93900.53;;;18.04;77.90
61345;BME280;47216;42.656;23.232;2022-09-03T00:02:35;93907.94;;;18.16;77.88
61345;BME280;47216;42.656;23.232;2022-09-03T00:05:07;93912.28;;;18.12;77.78
61345;BME280;47216;42.656;23.232;2022-09-03T00:07:42;93904.63;;;18.10;78.13
61345;BME280;47216;42.656;23.232;2022-09-03T00:10:18;93909.69;;;18.06;78.00
61345;BME280;47216;42.656;23.232;2022-09-03T00:12:50;93908.94;;;18.06;78.23
61345;BME280;47216;42.656;23.232;2022-09-03T00:15:20;93910.03;;;18.05;78.50
61345;BME280;47216;42.656;23.232;2022-09-03T00:17:52;93904.44;;;18.06;78.31
61345;BME280;47216;42.656;23.232;2022-09-03T00:20:23;93902.97;;;18.14;78.19
61345;BME280;47216;42.656;23.232;2022-09-03T00:22:54;93902.50;;;18.12;78.02
61345;BME280;47216;42.656;23.232;2022-09-03T00:25:27;93895.06;;;18.14;78.00
61345;BME280;47216;42.656;23.232;2022-09-03T00:27:56;93896.63;;;18.15;77.85
61345;BME280;47216;42.656;23.232;2022-09-03T00:30:25;93886.28;;;18.19;77.51
61345;BME280;47216;42.656;23.232;2022-09-03T00:32:56;93895.25;;;18.18;77.55
61345;BME280;47216;42.656;23.232;2022-09-03T00:35:27;93895.25;;;18.18;77.68
61345;BME280;47216;42.656;23.232;2022-09-03T00:37:56;93890.94;;;18.22;77.32
61345;BME280;47216;42.656;23.232;2022-09-03T00:40:44;93886.63;;;17.84;76.10
61345;BME280;47216;42.656;23.232;2022-09-03T00:43:23;93892.81;;;17.94;76.93
61345;BME280;47216;42.656;23.232;2022-09-03T00:46:06;93893.19;;;17.87;77.04
61345;BME280;47216;42.656;23.232;2022-09-03T00:48:44;93894.16;;;17.91;76.83
61345;BME280;47216;42.656;23.232;2022-09-03T00:51:20;93896.34;;;18.03;76.85
61345;BME280;47216;42.656;23.232;2022-09-03T00:53:58;93897.00;;;18.09;77.08
61345;BME280;47216;42.656;23.232;2022-09-03T00:56:31;93889.59;;;18.11;77.17
61345;BME280;47216;42.656;23.232;2022-09-03T01:03:00;93905.69;;;18.09;77.17
61345;BME280;47216;42.656;23.232;2022-09-03T01:05:41;93902.47;;;17.98;75.76
61345;BME280;47216;42.656;23.232;2022-09-03T01:08:19;93905.53;;;17.73;75.80
61345;BME280;47216;42.656;23.232;2022-09-03T01:10:55;93901.81;;;17.74;76.35
61345;BME280;47216;42.656;23.232;2022-09-03T01:13:32;93902.31;;;17.76;76.15
61345;BME280;47216;42.656;23.232;2022-09-03T01:16:08;93900.00;;;17.88;76.69
61345;BME280;47216;42.656;23.232;2022-09-03T01:18:44;93907.25;;;17.96;76.90
61345;BME280;47216;42.656;23.232;2022-09-03T01:21:37;93908.31;;;17.95;76.95
61345;BME280;47216;42.656;23.232;2022-09-03T01:24:25;93911.19;;;17.99;77.07
61345;BME280;47216;42.656;23.232;2022-09-03T01:27:08;93919.38;;;17.97;77.59
61345;BME280;47216;42.656;23.232;2022-09-03T01:29:46;93928.88;;;17.98;77.67
61345;BME280;47216;42.656;23.232;2022-09-03T01:32:21;93930.63;;;17.89;77.03
61345;BME280;47216;42.656;23.232;2022-09-03T01:34:56;93926.69;;;17.87;77.51
61345;BME280;47216;42.656;23.232;2022-09-03T01:37:33;93939.06;;;17.72;77.40
61345;BME280;47216;42.656;23.232;2022-09-03T01:40:11;93934.06;;;17.38;77.47
61345;BME280;47216;42.656;23.232;2022-09-03T01:42:52;93938.25;;;17.39;77.95
61345;BME280;47216;42.656;23.232;2022-09-03T01:45:41;93931.16;;;17.53;78.05
61345;BME280;47216;42.656;23.232;2022-09-03T01:48:26;93924.47;;;17.61;78.10
61345;BME280;47216;42.656;23.232;2022-09-03T01:51:03;93925.25;;;17.61;78.10
61345;BME280;47216;42.656;23.232;2022-09-03T01:53:44;93932.00;;;17.68;77.81
61345;BME280;47216;42.656;23.232;2022-09-03T01:56:27;93927.50;;;17.68;77.80
61345;BME280;47216;42.656;23.232;2022-09-03T01:59:02;93922.91;;;17.74;78.00
61345;BME280;47216;42.656;23.232;2022-09-03T02:01:35;93925.06;;;17.72;77.44
61345;BME280;47216;42.656;23.232;2022-09-03T02:04:13;93914.50;;;17.72;77.64
61345;BME280;47216;42.656;23.232;2022-09-03T02:06:42;93911.81;;;17.77;77.56
61345;BME280;47216;42.656;23.232;2022-09-03T02:09:10;93924.50;;;17.75;77.99
61345;BME280;47216;42.656;23.232;2022-09-03T02:11:37;93924.09;;;17.68;78.26
61345;BME280;47216;42.656;23.232;2022-09-03T02:14:04;93932.56;;;17.64;77.99
61345;BME280;47216;42.656;23.232;2022-09-03T02:16:33;93932.06;;;17.62;77.91
61345;BME280;47216;42.656;23.232;2022-09-03T02:19:03;93922.72;;;17.70;77.78
61345;BME280;47216;42.656;23.232;2022-09-03T02:21:33;93921.06;;;17.74;77.73
61345;BME280;47216;42.656;23.232;2022-09-03T02:24:02;93921.38;;;17.73;77.34
61345;BME280;47216;42.656;23.232;2022-09-03T02:26:30;93923.13;;;17.77;77.27
61345;BME280;47216;42.656;23.232;2022-09-03T02:28:57;93929.19;;;17.78;77.41
61345;BME280;47216;42.656;23.232;2022-09-03T02:31:25;93933.47;;;17.74;77.69
61345;BME280;47216;42.656;23.232;2022-09-03T02:33:55;93931.34;;;17.76;77.87
61345;BME280;47216;42.656;23.232;2022-09-03T02:36:25;93927.03;;;17.80;77.61
61345;BME280;47216;42.656;23.232;2022-09-03T02:38:53;93916.16;;;17.87;77.53
61345;BME280;47216;42.656;23.232;2022-09-03T02:41:20;93936.25;;;17.82;77.32
61345;BME280;47216;42.656;23.232;2022-09-03T02:43:54;93931.47;;;17.52;78.34
61345;BME280;47216;42.656;23.232;2022-09-03T02:46:28;93933.25;;;17.56;78.16
61345;BME280;47216;42.656;23.232;2022-09-03T02:48:59;93940.47;;;17.64;78.16
61345;BME280;47216;42.656;23.232;2022-09-03T02:51:25;93938.34;;;17.67;78.09
61345;BME280;47216;42.656;23.232;2022-09-03T02:53:52;93938.94;;;17.63;78.26
61345;BME280;47216;42.656;23.232;2022-09-03T02:56:19;93944.38;;;17.67;78.17
61345;BME280;47216;42.656;23.232;2022-09-03T02:58:51;93937.75;;;17.70;78.09
61345;BME280;47216;42.656;23.232;2022-09-03T03:01:18;93929.28;;;17.73;77.94
61345;BME280;47216;42.656;23.232;2022-09-03T03:03:44;93935.56;;;17.77;77.96
61345;BME280;47216;42.656;23.232;2022-09-03T03:06:13;93939.75;;;17.78;77.67
61345;BME280;47216;42.656;23.232;2022-09-03T03:08:40;93939.19;;;17.81;77.57
61345;BME280;47216;42.656;23.232;2022-09-03T03:11:07;93933.09;;;17.80;77.67
61345;BME280;47216;42.656;23.232;2022-09-03T03:13:34;93927.03;;;17.80;77.54
61345;BME280;47216;42.656;23.232;2022-09-03T03:16:03;93923.34;;;17.81;77.55
61345;BME280;47216;42.656;23.232;2022-09-03T03:18:31;93922.56;;;17.80;77.48
61345;BME280;47216;42.656;23.232;2022-09-03T03:21:03;93915.94;;;17.83;77.35
61345;BME280;47216;42.656;23.232;2022-09-03T03:23:32;93916.28;;;17.76;77.44
61345;BME280;47216;42.656;23.232;2022-09-03T03:26:00;93919.28;;;17.70;77.78
61345;BME280;47216;42.656;23.232;2022-09-03T03:28:27;93924.38;;;17.66;78.08
61345;BME280;47216;42.656;23.232;2022-09-03T03:30:56;93928.56;;;17.67;78.15
61345;BME280;47216;42.656;23.232;2022-09-03T03:33:23;93932.38;;;17.61;78.20
61345;BME280;47216;42.656;23.232;2022-09-03T03:35:50;93922.88;;;17.60;78.25
61345;BME280;47216;42.656;23.232;2022-09-03T03:38:17;93926.03;;;17.62;78.38
61345;BME280;47216;42.656;23.232;2022-09-03T03:40:45;93925.66;;;17.69;78.03
61345;BME280;47216;42.656;23.232;2022-09-03T03:43:12;93926.66;;;17.73;77.99
61345;BME280;47216;42.656;23.232;2022-09-03T03:45:38;93939.06;;;17.72;77.93
61345;BME280;47216;42.656;23.232;2022-09-03T03:48:05;93933.66;;;17.63;78.35
61345;BME280;47216;42.656;23.232;2022-09-03T03:50:32;93931.47;;;17.52;78.40
61345;BME280;47216;42.656;23.232;2022-09-03T03:52:59;93941.22;;;17.51;78.37
61345;BME280;47216;42.656;23.232;2022-09-03T03:55:26;93938.53;;;17.56;78.27
61345;BME280;47216;42.656;23.232;2022-09-03T03:57:54;93946.34;;;17.61;78.29
61345;BME280;47216;42.656;23.232;2022-09-03T04:00:21;93946.84;;;17.63;77.75
61345;BME280;47216;42.656;23.232;2022-09-03T04:02:48;93942.97;;;17.56;77.70
61345;BME280;47216;42.656;23.232;2022-09-03T04:05:15;93935.78;;;17.61;77.67
61345;BME280;47216;42.656;23.232;2022-09-03T04:07:42;93936.78;;;17.66;77.65
61345;BME280;47216;42.656;23.232;2022-09-03T04:10:09;93940.84;;;17.58;77.63
61345;BME280;47216;42.656;23.232;2022-09-03T04:12:36;93935.00;;;17.61;77.50
61345;BME280;47216;42.656;23.232;2022-09-03T04:15:05;93931.69;;;17.69;76.87
61345;BME280;47216;42.656;23.232;2022-09-03T04:17:32;93928.78;;;17.71;76.95
61345;BME280;47216;42.656;23.232;2022-09-03T04:19:59;93927.19;;;17.70;76.94
61345;BME280;47216;42.656;23.232;2022-09-03T04:22:27;93937.28;;;17.68;77.20
61345;BME280;47216;42.656;23.232;2022-09-03T04:24:54;93933.84;;;17.67;77.23
61345;BME280;47216;42.656;23.232;2022-09-03T04:27:21;93936.19;;;17.69;77.31
61345;BME280;47216;42.656;23.232;2022-09-03T04:29:48;93952.53;;;17.71;77.50
61345;BME280;47216;42.656;23.232;2022-09-03T04:32:16;93951.44;;;17.72;77.24
61345;BME280;47216;42.656;23.232;2022-09-03T04:35:01;93955.16;;;17.71;77.05
61345;BME280;47216;42.656;23.232;2022-09-03T04:37:27;93960.16;;;17.53;76.96
61345;BME280;47216;42.656;23.232;2022-09-03T04:39:54;93967.09;;;17.49;77.52
61345;BME280;47216;42.656;23.232;2022-09-03T04:42:21;93965.53;;;17.48;77.94
61345;BME280;47216;42.656;23.232;2022-09-03T04:44:48;93965.16;;;17.55;78.17
61345;BME280;47216;42.656;23.232;2022-09-03T04:47:16;93977.75;;;17.58;78.08
61345;BME280;47216;42.656;23.232;2022-09-03T04:49:43;93981.25;;;17.53;78.42
61345;BME280;47216;42.656;23.232;2022-09-03T04:52:10;93989.84;;;17.45;77.10
61345;BME280;47216;42.656;23.232;2022-09-03T04:54:37;93992.75;;;17.25;76.77
61345;BME280;47216;42.656;23.232;2022-09-03T04:57:03;93987.63;;;17.33;76.89
61345;BME280;47216;42.656;23.232;2022-09-03T04:59:30;93997.81;;;17.40;76.85
61345;BME280;47216;42.656;23.232;2022-09-03T05:01:57;93999.88;;;17.43;77.00
61345;BME280;47216;42.656;23.232;2022-09-03T05:04:25;94000.88;;;17.47;77.41
61345;BME280;47216;42.656;23.232;2022-09-03T05:06:52;94003.88;;;17.21;77.23
61345;BME280;47216;42.656;23.232;2022-09-03T05:09:19;94004.94;;;17.01;76.65
61345;BME280;47216;42.656;23.232;2022-09-03T05:11:46;94010.72;;;16.79;78.05
61345;BME280;47216;42.656;23.232;2022-09-03T05:14:13;94002.84;;;16.74;78.28
61345;BME280;47216;42.656;23.232;2022-09-03T05:16:39;93994.81;;;16.90;77.59
61345;BME280;47216;42.656;23.232;2022-09-03T05:19:06;94004.78;;;17.12;76.93
61345;BME280;47216;42.656;23.232;2022-09-03T05:21:35;93993.75;;;17.10;76.96
61345;BME280;47216;42.656;23.232;2022-09-03T05:24:03;93998.22;;;17.09;76.48
61345;BME280;47216;42.656;23.232;2022-09-03T05:26:32;93998.47;;;17.13;76.28
61345;BME280;47216;42.656;23.232;2022-09-03T05:29:03;93999.94;;;17.00;76.15
61345;BME280;47216;42.656;23.232;2022-09-03T05:31:32;94006.34;;;16.94;76.61
61345;BME280;47216;42.656;23.232;2022-09-03T05:34:02;94007.84;;;17.00;76.83
61345;BME280;47216;42.656;23.232;2022-09-03T05:36:31;94005.88;;;16.87;77.05
61345;BME280;47216;42.656;23.232;2022-09-03T05:39:00;94003.84;;;16.78;77.76
61345;BME280;47216;42.656;23.232;2022-09-03T05:41:28;94009.47;;;16.96;77.35
61345;BME280;47216;42.656;23.232;2022-09-03T05:43:55;94009.25;;;16.92;76.33
61345;BME280;47216;42.656;23.232;2022-09-03T05:46:24;94010.75;;;16.74;77.00
61345;BME280;47216;42.656;23.232;2022-09-03T05:48:54;94009.69;;;16.75;77.42
61345;BME280;47216;42.656;23.232;2022-09-03T05:51:21;94003.03;;;16.83;77.36
61345;BME280;47216;42.656;23.232;2022-09-03T05:53:48;94011.66;;;16.89;77.60
61345;BME280;47216;42.656;23.232;2022-09-03T05:56:18;94012.47;;;17.08;77.11
61345;BME280;47216;42.656;23.232;2022-09-03T05:58:46;94013.34;;;17.22;76.81
61345;BME280;47216;42.656;23.232;2022-09-03T06:01:15;94002.81;;;17.22;76.29
61345;BME280;47216;42.656;23.232;2022-09-03T06:03:43;94011.47;;;17.42;74.95
61345;BME280;47216;42.656;23.232;2022-09-03T06:06:10;94016.34;;;17.54;74.36
61345;BME280;47216;42.656;23.232;2022-09-03T06:08:38;94015.34;;;17.50;74.04
61345;BME280;47216;42.656;23.232;2022-09-03T06:11:07;94016.47;;;17.62;73.95
61345;BME280;47216;42.656;23.232;2022-09-03T06:13:35;94017.41;;;17.34;74.47
61345;BME280;47216;42.656;23.232;2022-09-03T06:16:04;94019.03;;;17.11;74.99
61345;BME280;47216;42.656;23.232;2022-09-03T06:18:31;94023.25;;;17.31;74.82
61345;BME280;47216;42.656;23.232;2022-09-03T06:20:59;94018.03;;;17.26;74.52
61345;BME280;47216;42.656;23.232;2022-09-03T06:23:27;94023.31;;;17.26;75.07
61345;BME280;47216;42.656;23.232;2022-09-03T06:26:01;94015.34;;;17.31;74.70
61345;BME280;47216;42.656;23.232;2022-09-03T06:28:29;94019.38;;;17.42;74.84
61345;BME280;47216;42.656;23.232;2022-09-03T06:30:58;94028.94;;;17.57;74.00
61345;BME280;47216;42.656;23.232;2022-09-03T06:33:26;94033.44;;;17.56;73.68
61345;BME280;47216;42.656;23.232;2022-09-03T06:35:55;94033.28;;;17.67;73.69
61345;BME280;47216;42.656;23.232;2022-09-03T06:38:27;94029.41;;;17.78;74.05
61345;BME280;47216;42.656;23.232;2022-09-03T06:40:58;94028.34;;;17.98;74.29
61345;BME280;47216;42.656;23.232;2022-09-03T06:43:29;94030.94;;;18.17;73.28
61345;BME280;47216;42.656;23.232;2022-09-03T06:45:59;94033.50;;;17.89;72.55
61345;BME280;47216;42.656;23.232;2022-09-03T06:48:27;94032.16;;;17.73;72.97
61345;BME280;47216;42.656;23.232;2022-09-03T06:50:55;94039.06;;;17.50;74.09
61345;BME280;47216;42.656;23.232;2022-09-03T06:53:24;94033.44;;;17.56;73.85
61345;BME280;47216;42.656;23.232;2022-09-03T06:55:55;94032.28;;;17.62;73.42
61345;BME280;47216;42.656;23.232;2022-09-03T06:58:22;94043.63;;;17.44;73.48
61345;BME280;47216;42.656;23.232;2022-09-03T07:00:50;94040.53;;;17.56;73.42
61345;BME280;47216;42.656;23.232;2022-09-03T07:03:20;94047.06;;;17.63;74.61
61345;BME280;47216;42.656;23.232;2022-09-03T07:05:46;94043.75;;;17.72;74.07
61345;BME280;47216;42.656;23.232;2022-09-03T07:08:13;94051.09;;;17.75;73.32
61345;BME280;47216;42.656;23.232;2022-09-03T07:10:44;94051.66;;;17.72;72.71
61345;BME280;47216;42.656;23.232;2022-09-03T07:13:12;94056.81;;;17.82;73.10
61345;BME280;47216;42.656;23.232;2022-09-03T07:15:39;94058.69;;;17.81;73.12
61345;BME280;47216;42.656;23.232;2022-09-03T07:18:06;94055.03;;;17.77;72.69
61345;BME280;47216;42.656;23.232;2022-09-03T07:20:35;94062.72;;;17.93;72.86
61345;BME280;47216;42.656;23.232;2022-09-03T07:23:01;94057.06;;;17.99;73.32
61345;BME280;47216;42.656;23.232;2022-09-03T07:25:28;94062.75;;;18.06;73.55
61345;BME280;47216;42.656;23.232;2022-09-03T07:27:56;94071.72;;;17.92;72.08
61345;BME280;47216;42.656;23.232;2022-09-03T07:30:23;94066.50;;;17.68;72.26
61345;BME280;47216;42.656;23.232;2022-09-03T07:32:50;94065.88;;;17.38;73.05
61345;BME280;47216;42.656;23.232;2022-09-03T07:35:18;94069.44;;;17.47;73.60
61345;BME280;47216;42.656;23.232;2022-09-03T07:37:46;94066.63;;;17.19;73.81
61345;BME280;47216;42.656;23.232;2022-09-03T07:40:13;94071.91;;;17.19;74.69
61345;BME280;47216;42.656;23.232;2022-09-03T07:42:43;94068.28;;;17.34;74.24
61345;BME280;47216;42.656;23.232;2022-09-03T07:45:12;94071.06;;;17.43;73.69
61345;BME280;47216;42.656;23.232;2022-09-03T07:47:45;94074.34;;;17.54;74.23
61345;BME280;47216;42.656;23.232;2022-09-03T07:50:12;94073.84;;;17.52;73.50
61345;BME280;47216;42.656;23.232;2022-09-03T07:52:40;94071.19;;;17.71;73.28
61345;BME280;47216;42.656;23.232;2022-09-03T07:55:09;94072.56;;;17.87;72.58
61345;BME280;47216;42.656;23.232;2022-09-03T07:57:36;94080.72;;;18.04;72.32
61345;BME280;47216;42.656;23.232;2022-09-03T08:00:03;94084.81;;;17.97;71.63
61345;BME280;47216;42.656;23.232;2022-09-03T08:02:32;94091.31;;;17.85;71.31
61345;BME280;47216;42.656;23.232;2022-09-03T08:04:58;94083.72;;;17.79;71.47
61345;BME280;47216;42.656;23.232;2022-09-03T08:07:27;94080.25;;;17.83;72.22
61345;BME280;47216;42.656;23.232;2022-09-03T08:09:54;94090.31;;;18.00;72.13
61345;BME280;47216;42.656;23.232;2022-09-03T08:12:23;94081.50;;;17.91;72.51
61345;BME280;47216;42.656;23.232;2022-09-03T08:14:49;94083.03;;;17.92;71.64
61345;BME280;47216;42.656;23.232;2022-09-03T08:17:16;94086.59;;;18.01;72.18
61345;BME280;47216;42.656;23.232;2022-09-03T08:19:43;94075.53;;;17.99;71.22
61345;BME280;47216;42.656;23.232;2022-09-03T08:22:10;94073.66;;;18.19;71.71
61345;BME280;47216;42.656;23.232;2022-09-03T08:24:37;94067.22;;;18.25;70.48
61345;BME280;47216;42.656;23.232;2022-09-03T08:27:04;94068.13;;;18.34;70.62
61345;BME280;47216;42.656;23.232;2022-09-03T08:29:32;94066.38;;;18.43;71.09
61345;BME280;47216;42.656;23.232;2022-09-03T08:31:59;94077.03;;;18.38;71.02
61345;BME280;47216;42.656;23.232;2022-09-03T08:34:26;94064.44;;;18.49;70.62
61345;BME280;47216;42.656;23.232;2022-09-03T08:36:54;94067.59;;;18.65;70.07
61345;BME280;47216;42.656;23.232;2022-09-03T08:39:21;94055.69;;;18.81;69.76
61345;BME280;47216;42.656;23.232;2022-09-03T08:42:06;94059.47;;;18.75;69.07
61345;BME280;47216;42.656;23.232;2022-09-03T08:44:42;94055.69;;;18.81;69.48
61345;BME280;47216;42.656;23.232;2022-09-03T08:47:14;94059.00;;;18.87;69.54
61345;BME280;47216;42.656;23.232;2022-09-03T08:49:45;94063.69;;;19.04;68.73
61345;BME280;47216;42.656;23.232;2022-09-03T08:52:22;94063.91;;;18.94;69.24
61345;BME280;47216;42.656;23.232;2022-09-03T08:54:50;94056.09;;;18.88;68.96
61345;BME280;47216;42.656;23.232;2022-09-03T08:57:20;94067.81;;;18.82;69.82
61345;BME280;47216;42.656;23.232;2022-09-03T08:59:52;94062.34;;;18.93;70.00
61345;BME280;47216;42.656;23.232;2022-09-03T09:02:26;94058.03;;;19.10;69.58
61345;BME280;47216;42.656;23.232;2022-09-03T09:05:03;94062.53;;;19.10;68.37
61345;BME280;47216;42.656;23.232;2022-09-03T09:07:36;94066.28;;;18.81;69.51
61345;BME280;47216;42.656;23.232;2022-09-03T09:10:11;94064.19;;;19.06;68.99
61345;BME280;47216;42.656;23.232;2022-09-03T09:12:47;94067.91;;;19.33;69.37
61345;BME280;47216;42.656;23.232;2022-09-03T09:15:27;94069.41;;;19.47;68.28
61345;BME280;47216;42.656;23.232;2022-09-03T09:18:06;94073.81;;;19.52;68.27
61345;BME280;47216;42.656;23.232;2022-09-03T09:20:41;94074.44;;;19.49;68.09
61345;BME280;47216;42.656;23.232;2022-09-03T09:23:13;94079.72;;;19.49;68.02
61345;BME280;47216;42.656;23.232;2022-09-03T09:25:46;94082.63;;;19.61;67.90
61345;BME280;47216;42.656;23.232;2022-09-03T09:28:17;94085.88;;;19.58;67.85
61345;BME280;47216;42.656;23.232;2022-09-03T09:30:46;94082.03;;;19.64;67.37
61345;BME280;47216;42.656;23.232;2022-09-03T09:33:14;94078.34;;;19.38;67.56
61345;BME280;47216;42.656;23.232;2022-09-03T09:35:41;94078.03;;;19.53;68.50
61345;BME280;47216;42.656;23.232;2022-09-03T09:38:08;94076.94;;;19.54;67.95
61345;BME280;47216;42.656;23.232;2022-09-03T09:40:38;94083.44;;;19.48;67.88
61345;BME280;47216;42.656;23.232;2022-09-03T09:43:09;94076.38;;;19.57;67.00
61345;BME280;47216;42.656;23.232;2022-09-03T09:45:37;94077.31;;;19.61;67.49
61345;BME280;47216;42.656;23.232;2022-09-03T09:48:14;94074.91;;;19.51;67.87
61345;BME280;47216;42.656;23.232;2022-09-03T09:50:43;94087.38;;;19.50;67.59
61345;BME280;47216;42.656;23.232;2022-09-03T09:53:10;94090.66;;;19.56;67.49
61345;BME280;47216;42.656;23.232;2022-09-03T09:55:53;94082.59;;;19.75;67.16
61345;BME280;47216;42.656;23.232;2022-09-03T09:58:21;94085.03;;;20.08;66.44
61345;BME280;47216;42.656;23.232;2022-09-03T10:01:00;94085.59;;;20.19;66.38
61345;BME280;47216;42.656;23.232;2022-09-03T10:03:31;94082.44;;;19.94;65.64
61345;BME280;47216;42.656;23.232;2022-09-03T10:06:03;94081.47;;;20.12;65.64
61345;BME280;47216;42.656;23.232;2022-09-03T10:08:52;94075.28;;;20.40;65.89
61345;BME280;47216;42.656;23.232;2022-09-03T10:11:20;94073.25;;;20.36;65.88
61345;BME280;47216;42.656;23.232;2022-09-03T10:13:50;94073.44;;;20.18;64.89
61345;BME280;47216;42.656;23.232;2022-09-03T10:16:26;94078.84;;;20.35;65.23
61345;BME280;47216;42.656;23.232;2022-09-03T10:19:05;94073.53;;;20.35;65.95
61345;BME280;47216;42.656;23.232;2022-09-03T10:21:42;94073.03;;;20.55;65.32
61345;BME280;47216;42.656;23.232;2022-09-03T10:24:31;94071.31;;;20.82;65.69
61345;BME280;47216;42.656;23.232;2022-09-03T10:27:05;94066.72;;;21.14;64.35
61345;BME280;47216;42.656;23.232;2022-09-03T10:29:34;94070.19;;;21.23;64.24
61345;BME280;47216;42.656;23.232;2022-09-03T10:32:13;94070.19;;;21.23;62.72
61345;BME280;47216;42.656;23.232;2022-09-03T10:34:53;94061.28;;;21.28;62.58
61345;BME280;47216;42.656;23.232;2022-09-03T10:37:31;94068.31;;;21.32;61.01
61345;BME280;47216;42.656;23.232;2022-09-03T10:40:18;94073.50;;;20.80;63.00
61345;BME280;47216;42.656;23.232;2022-09-03T10:43:04;94075.13;;;20.98;63.60
61345;BME280;47216;42.656;23.232;2022-09-03T10:45:38;94076.63;;;20.91;63.98
61345;BME280;47216;42.656;23.232;2022-09-03T10:48:34;94073.81;;;20.87;63.08
61345;BME280;47216;42.656;23.232;2022-09-03T10:51:15;94077.56;;;20.86;62.80
61345;BME280;47216;42.656;23.232;2022-09-03T10:54:04;94078.16;;;20.83;62.65
61345;BME280;47216;42.656;23.232;2022-09-03T10:56:42;94077.19;;;20.48;62.45
61345;BME280;47216;42.656;23.232;2022-09-03T10:59:27;94078.31;;;20.55;64.28
61345;BME280;47216;42.656;23.232;2022-09-03T11:02:08;94074.03;;;20.60;62.60
61345;BME280;47216;42.656;23.232;2022-09-03T11:04:45;94076.59;;;20.51;62.52
61345;BME280;47216;42.656;23.232;2022-09-03T11:07:20;94079.66;;;20.67;62.46
61345;BME280;47216;42.656;23.232;2022-09-03T11:09:50;94086.50;;;20.59;62.85
61345;BME280;47216;42.656;23.232;2022-09-03T11:12:25;94076.38;;;20.70;62.02
61345;BME280;47216;42.656;23.232;2022-09-03T11:14:58;94083.00;;;20.81;62.35
61345;BME280;47216;42.656;23.232;2022-09-03T11:17:33;94076.66;;;20.99;62.89
61345;BME280;47216;42.656;23.232;2022-09-03T11:20:10;94072.03;;;21.05;61.99
61345;BME280;47216;42.656;23.232;2022-09-03T11:22:41;94072.34;;;21.12;61.11
61345;BME280;47216;42.656;23.232;2022-09-03T11:25:11;94068.97;;;21.29;60.95
61345;BME280;47216;42.656;23.232;2022-09-03T11:27:51;94072.47;;;21.47;60.70
61345;BME280;47216;42.656;23.232;2022-09-03T11:30:25;94073.63;;;21.24;59.17
61345;BME280;47216;42.656;23.232;2022-09-03T11:32:57;94068.84;;;21.43;59.81
61345;BME280;47216;42.656;23.232;2022-09-03T11:35:27;94071.84;;;21.59;60.58
61345;BME280;47216;42.656;23.232;2022-09-03T11:37:59;94068.75;;;21.74;59.73
61345;BME280;47216;42.656;23.232;2022-09-03T11:40:34;94071.56;;;21.87;57.85
61345;BME280;47216;42.656;23.232;2022-09-03T11:43:07;94069.34;;;22.06;58.82
61345;BME280;47216;42.656;23.232;2022-09-03T11:45:37;94070.91;;;22.24;60.34
61345;BME280;47216;42.656;23.232;2022-09-03T11:48:19;94067.94;;;22.35;58.65
61345;BME280;47216;42.656;23.232;2022-09-03T11:50:54;94070.59;;;22.35;57.62
61345;BME280;47216;42.656;23.232;2022-09-03T11:53:25;94072.94;;;22.19;57.64
61345;BME280;47216;42.656;23.232;2022-09-03T11:56:00;94084.66;;;22.09;57.39
61345;BME280;47216;42.656;23.232;2022-09-03T11:58:30;94071.69;;;22.08;58.68
61345;BME280;47216;42.656;23.232;2022-09-03T12:01:01;94074.97;;;22.13;57.99
61345;BME280;47216;42.656;23.232;2022-09-03T12:03:39;94070.28;;;22.10;56.95
61345;BME280;47216;42.656;23.232;2022-09-03T12:06:26;94072.78;;;22.33;57.76
61345;BME280;47216;42.656;23.232;2022-09-03T12:09:12;94062.56;;;22.52;56.37
61345;BME280;47216;42.656;23.232;2022-09-03T12:11:52;94056.03;;;22.41;55.52
61345;BME280;47216;42.656;23.232;2022-09-03T12:14:29;94053.94;;;22.64;55.74
61345;BME280;47216;42.656;23.232;2022-09-03T12:17:15;94049.78;;;22.45;54.79
61345;BME280;47216;42.656;23.232;2022-09-03T12:19:49;94057.47;;;22.30;56.27
61345;BME280;47216;42.656;23.232;2022-09-03T12:22:18;94054.34;;;22.10;55.25
61345;BME280;47216;42.656;23.232;2022-09-03T12:24:47;94059.50;;;22.15;56.51
61345;BME280;47216;42.656;23.232;2022-09-03T12:27:19;94061.88;;;22.26;56.56
61345;BME280;47216;42.656;23.232;2022-09-03T12:29:54;94061.53;;;22.36;56.99
61345;BME280;47216;42.656;23.232;2022-09-03T12:32:22;94048.88;;;22.41;56.60
61345;BME280;47216;42.656;23.232;2022-09-03T12:34:50;94062.91;;;22.51;57.62
61345;BME280;47216;42.656;23.232;2022-09-03T12:37:19;94057.09;;;22.57;56.29
61345;BME280;47216;42.656;23.232;2022-09-03T12:39:53;94055.09;;;22.45;56.66
61345;BME280;47216;42.656;23.232;2022-09-03T12:42:23;94048.81;;;22.50;56.37
61345;BME280;47216;42.656;23.232;2022-09-03T12:44:52;94051.41;;;22.76;57.84
61345;BME280;47216;42.656;23.232;2022-09-03T12:47:20;94058.47;;;23.11;59.11
61345;BME280;47216;42.656;23.232;2022-09-03T12:49:49;94043.59;;;23.39;58.17
61345;BME280;47216;42.656;23.232;2022-09-03T12:52:19;94042.38;;;23.58;56.90
61345;BME280;47216;42.656;23.232;2022-09-03T12:54:54;94038.69;;;23.71;54.05
61345;BME280;47216;42.656;23.232;2022-09-03T12:57:25;94044.63;;;23.68;53.46
61345;BME280;47216;42.656;23.232;2022-09-03T12:59:56;94041.59;;;23.57;53.55
61345;BME280;47216;42.656;23.232;2022-09-03T13:02:27;94038.84;;;23.24;54.49
61345;BME280;47216;42.656;23.232;2022-09-03T13:04:57;94026.59;;;23.53;54.17
61345;BME280;47216;42.656;23.232;2022-09-03T13:07:27;94033.63;;;23.36;53.07
61345;BME280;47216;42.656;23.232;2022-09-03T13:10:02;94037.47;;;23.18;53.70
61345;BME280;47216;42.656;23.232;2022-09-03T13:12:33;94034.34;;;23.16;54.15
61345;BME280;47216;42.656;23.232;2022-09-03T13:15:09;94021.78;;;23.46;52.57